עמוד ראשי
METAR-TAF:

METAR-TAF

שדות תעופה :

Mountain Village, אלסקה, ארצות הברית

קו רוחב: 62-05-43N, קו אורך: 163-40-55W, גובה: 103מטר

תצפית מזג אוויר נוכחית

הדו"ח נערך לפני 2 שעות ו 4דקות, בשעה 08:56 UTC
רוח 9קשר מכיוון צפון-מערב
טמפרטורת 8 צלסיוס
לחות 93%
לחץ 996 hPa
ראות: 16.1קילומטר
עננים פזורים בגובה 1000רגל
עננים בינוניים בגובה 1600רגל
מעונן בגובה 5000רגל
גשם

METAR: PAMO 140856Z AUTO 32009KT 10SM RA SCT010 BKN016 OVC050 08/07 A2942 RMK AO2 SLP965 P0002 60003 T00780072 56012

זמן: 03:00 (11:00 UTC)


TAF: חסר

תצפיות ותחזיות מזג אוויר לגבי יותר מ- 4,000 שדות תעופה ברחבי העולם. דוחות METAR ו- TAF.

התחנות הזמינות מסומנות בנקודות צהובות ואדומות על גבי המפה.

העבר את העכבר לנקודה הצבעונית על מנת לראות את שם התחנה.

לאחר מכן, לחץ כדי לראות את תוכן ואת תחזיות מזג האוויר.

כדי לשנות את המפה: לחץ על הכפתורים הירוקים עם הפלוס השחור כדי להתקרב; על הכפתור הירוק עם המקף כדי להתרחק; או בחיצים הירוקים למפות סמוכות.


METAR-TAF: